createdAt,value
2019-05-17T00:02:12.597Z,9.68
2019-05-17T00:04:43.173Z,9.73
2019-05-17T00:07:13.678Z,9.80
2019-05-17T00:09:44.171Z,9.69
2019-05-17T00:12:16.631Z,9.76
2019-05-17T00:14:47.270Z,9.72
2019-05-17T00:17:17.873Z,9.79
2019-05-17T00:19:48.240Z,9.67
2019-05-17T00:22:18.767Z,9.74
2019-05-17T00:24:49.220Z,9.59
2019-05-17T00:27:19.661Z,9.58
2019-05-17T00:29:50.252Z,9.67
2019-05-17T00:32:20.637Z,9.61
2019-05-17T00:34:51.061Z,9.65
2019-05-17T00:37:21.471Z,9.54
2019-05-17T00:39:52.068Z,9.57
2019-05-17T00:42:22.517Z,9.59
2019-05-17T00:44:53.054Z,9.53
2019-05-17T00:47:23.498Z,9.44
2019-05-17T00:49:53.957Z,9.52
2019-05-17T00:52:24.380Z,9.47
2019-05-17T00:54:56.346Z,9.51
2019-05-17T00:57:27.469Z,9.50
2019-05-17T00:59:58.008Z,9.48
2019-05-17T01:02:28.460Z,9.50
2019-05-17T01:04:58.849Z,9.56
2019-05-17T01:07:29.390Z,9.48
2019-05-17T01:09:59.858Z,9.43
2019-05-17T01:12:30.283Z,9.51
2019-05-17T01:15:00.816Z,9.55
2019-05-17T01:17:31.262Z,9.46
2019-05-17T01:20:01.743Z,9.56
2019-05-17T01:22:32.318Z,9.48
2019-05-17T01:25:02.800Z,9.51
2019-05-17T01:27:33.292Z,9.46
2019-05-17T01:30:03.781Z,9.40
2019-05-17T01:32:34.258Z,9.43
2019-05-17T01:35:07.018Z,9.43
2019-05-17T01:37:37.306Z,9.42
2019-05-17T01:40:08.044Z,9.56
2019-05-17T01:42:38.497Z,9.53
2019-05-17T01:45:09.200Z,9.54
2019-05-17T01:47:39.650Z,9.51
2019-05-17T01:50:11.621Z,9.53
2019-05-17T01:52:42.149Z,9.38
2019-05-17T01:55:12.610Z,9.44
2019-05-17T01:57:43.044Z,9.47
2019-05-17T02:00:17.276Z,9.59
2019-05-17T02:02:48.701Z,9.56
2019-05-17T02:05:19.693Z,9.50
2019-05-17T02:07:50.146Z,9.49
2019-05-17T02:10:21.094Z,9.49
2019-05-17T02:12:51.580Z,9.44
2019-05-17T02:15:22.468Z,9.48
2019-05-17T02:17:52.858Z,9.46
2019-05-17T02:20:23.937Z,9.51
2019-05-17T02:22:56.371Z,9.50
2019-05-17T02:25:27.224Z,9.56
2019-05-17T02:27:57.874Z,9.54
2019-05-17T02:30:28.355Z,9.52
2019-05-17T02:33:03.392Z,9.58
2019-05-17T02:35:33.663Z,9.60
2019-05-17T02:38:04.078Z,9.61
2019-05-17T02:40:34.572Z,9.55
2019-05-17T02:43:05.096Z,9.63
2019-05-17T02:45:35.535Z,9.60
2019-05-17T02:48:05.996Z,9.51
2019-05-17T02:50:36.415Z,9.53
2019-05-17T02:53:06.843Z,9.49
2019-05-17T02:55:37.332Z,9.53
2019-05-17T02:58:07.821Z,9.68
2019-05-17T03:00:38.250Z,9.53
2019-05-17T03:03:08.709Z,9.65
2019-05-17T03:05:42.817Z,9.57
2019-05-17T03:08:12.279Z,9.58
2019-05-17T03:10:43.461Z,9.59
2019-05-17T03:13:17.633Z,9.65
2019-05-17T03:15:46.053Z,9.64
2019-05-17T03:18:16.549Z,9.60
2019-05-17T03:20:46.998Z,9.61
2019-05-17T03:23:17.479Z,9.62
2019-05-17T03:25:47.884Z,9.59
2019-05-17T03:28:18.334Z,9.56
2019-05-17T03:30:55.642Z,9.56
2019-05-17T03:33:26.412Z,9.67
2019-05-17T03:35:56.458Z,9.69
2019-05-17T03:38:27.905Z,9.68
2019-05-17T03:41:13.482Z,9.69
2019-05-17T03:43:30.604Z,9.67
2019-05-17T03:46:02.652Z,9.71
2019-05-17T03:48:33.658Z,9.61
2019-05-17T03:51:04.140Z,9.62
2019-05-17T03:53:34.617Z,9.64
2019-05-17T03:56:05.255Z,9.76
2019-05-17T03:58:35.732Z,9.69
2019-05-17T04:01:06.220Z,9.72
2019-05-17T04:03:36.731Z,9.75
2019-05-17T04:06:07.169Z,9.70
2019-05-17T04:08:37.673Z,9.75
2019-05-17T04:11:22.475Z,9.70
2019-05-17T04:13:43.036Z,9.78
2019-05-17T04:16:13.922Z,9.88
2019-05-17T04:18:44.862Z,9.83
2019-05-17T04:21:15.251Z,9.81
2019-05-17T04:23:45.843Z,9.80
2019-05-17T04:26:16.304Z,9.82
2019-05-17T04:28:46.755Z,9.76
2019-05-17T04:31:17.278Z,9.80
2019-05-17T04:33:47.745Z,9.82
2019-05-17T04:36:18.334Z,9.74
2019-05-17T04:38:48.809Z,9.78
2019-05-17T04:41:38.773Z,9.91
2019-05-17T04:43:53.222Z,9.87
2019-05-17T04:46:23.827Z,9.78
2019-05-17T04:48:54.357Z,9.89
2019-05-17T04:51:24.820Z,9.92
2019-05-17T04:53:55.315Z,9.99
2019-05-17T04:56:25.828Z,9.94
2019-05-17T04:58:56.314Z,10.00
2019-05-17T05:01:26.875Z,10.05
2019-05-17T05:03:57.371Z,9.99
2019-05-17T05:06:32.561Z,10.02
2019-05-17T05:09:02.753Z,10.01
2019-05-17T05:11:33.439Z,9.98
2019-05-17T05:14:04.021Z,9.96
2019-05-17T05:16:34.478Z,10.02
2019-05-17T05:19:04.955Z,10.07
2019-05-17T05:21:35.424Z,10.16
2019-05-17T05:24:05.920Z,10.28
2019-05-17T05:26:36.391Z,10.49
2019-05-17T05:29:06.863Z,10.44
2019-05-17T05:31:37.343Z,10.41
2019-05-17T05:34:07.811Z,10.51
2019-05-17T05:36:38.364Z,10.53
2019-05-17T05:39:11.524Z,10.56
2019-05-17T05:41:42.720Z,10.76
2019-05-17T05:44:13.313Z,10.65
2019-05-17T05:46:43.807Z,10.63
2019-05-17T05:49:14.295Z,10.52
2019-05-17T05:51:44.847Z,10.50
2019-05-17T05:54:15.327Z,10.53
2019-05-17T05:56:45.796Z,10.54
2019-05-17T05:59:16.314Z,10.71
2019-05-17T06:01:46.772Z,10.67
2019-05-17T06:04:17.260Z,10.73
2019-05-17T06:06:47.754Z,10.59
2019-05-17T06:09:18.264Z,10.56
2019-05-17T06:11:48.743Z,10.63
2019-05-17T06:14:21.459Z,10.73
2019-05-17T06:16:52.050Z,10.70
2019-05-17T06:19:22.714Z,10.67
2019-05-17T06:21:53.195Z,10.73
2019-05-17T06:24:23.711Z,10.61
2019-05-17T06:26:54.285Z,10.57
2019-05-17T06:29:24.828Z,10.64
2019-05-17T06:31:55.310Z,10.72
2019-05-17T06:34:25.778Z,10.72
2019-05-17T06:36:56.331Z,10.66
2019-05-17T06:39:26.745Z,10.68
2019-05-17T06:41:57.213Z,10.72
2019-05-17T06:44:27.741Z,10.68
2019-05-17T06:46:58.232Z,10.73
2019-05-17T06:49:28.749Z,10.70
2019-05-17T06:51:59.279Z,10.88
2019-05-17T06:54:29.737Z,11.01
2019-05-17T06:57:03.068Z,10.98
2019-05-17T06:59:32.436Z,11.11
2019-05-17T07:02:02.936Z,11.20
2019-05-17T07:04:33.411Z,11.40
2019-05-17T07:07:21.698Z,11.32
2019-05-17T07:09:52.225Z,11.15
2019-05-17T07:12:22.701Z,11.31
2019-05-17T07:14:53.262Z,11.56
2019-05-17T07:17:24.310Z,11.76
2019-05-17T07:19:54.774Z,11.84
2019-05-17T07:22:25.331Z,11.74
2019-05-17T07:24:55.810Z,11.87
2019-05-17T07:27:37.944Z,11.89
2019-05-17T07:29:59.278Z,11.98
2019-05-17T07:32:29.971Z,12.28
2019-05-17T07:35:00.565Z,11.88
2019-05-17T07:37:31.338Z,11.86
2019-05-17T07:40:05.110Z,11.82
2019-05-17T07:42:34.275Z,11.86
2019-05-17T07:45:05.588Z,12.01
2019-05-17T07:47:36.106Z,12.06
2019-05-17T07:50:10.832Z,11.91
2019-05-17T07:52:40.475Z,12.00
2019-05-17T07:55:11.380Z,12.10
2019-05-17T07:57:41.931Z,11.88
2019-05-17T08:00:14.358Z,11.75
2019-05-17T08:02:44.822Z,11.78
2019-05-17T08:05:15.816Z,11.86
2019-05-17T08:07:46.467Z,11.98
2019-05-17T08:10:20.196Z,12.04
2019-05-17T08:12:49.929Z,12.07
2019-05-17T08:15:20.472Z,11.99
2019-05-17T08:17:50.952Z,11.91
2019-05-17T08:20:21.443Z,12.14
2019-05-17T08:22:52.028Z,12.13
2019-05-17T08:25:22.657Z,12.27
2019-05-17T08:27:53.125Z,12.56
2019-05-17T08:30:24.318Z,13.00
2019-05-17T08:32:54.798Z,12.90
2019-05-17T08:35:25.323Z,13.11
2019-05-17T08:37:55.844Z,13.09
2019-05-17T08:40:26.328Z,13.20
2019-05-17T08:42:56.924Z,13.13
2019-05-17T08:45:29.499Z,13.29
2019-05-17T08:48:00.384Z,13.39
2019-05-17T08:50:31.291Z,13.37
2019-05-17T08:53:02.048Z,13.62
2019-05-17T08:55:32.549Z,13.67
2019-05-17T08:58:03.245Z,14.05
2019-05-17T09:00:33.765Z,13.95
2019-05-17T09:03:04.395Z,13.93
2019-05-17T09:05:34.889Z,14.06
2019-05-17T09:08:05.477Z,14.19
2019-05-17T09:10:36.022Z,13.97
2019-05-17T09:13:06.567Z,14.05
2019-05-17T09:15:37.062Z,14.11
2019-05-17T09:18:09.804Z,14.10
2019-05-17T09:20:40.580Z,13.87
2019-05-17T09:23:11.514Z,13.96
2019-05-17T09:25:42.011Z,13.95
2019-05-17T09:28:12.571Z,13.99
2019-05-17T09:30:45.648Z,13.83
2019-05-17T09:33:16.172Z,13.42
2019-05-17T09:35:46.723Z,13.82
2019-05-17T09:38:17.251Z,14.14
2019-05-17T09:40:47.718Z,14.50
2019-05-17T09:43:20.700Z,14.51
2019-05-17T09:45:51.473Z,14.69
2019-05-17T09:48:21.911Z,14.45
2019-05-17T09:50:52.402Z,14.41
2019-05-17T09:53:23.708Z,14.42
2019-05-17T09:55:54.343Z,14.32
2019-05-17T09:58:24.888Z,14.33
2019-05-17T10:00:55.475Z,14.50
2019-05-17T10:03:26.076Z,14.61
2019-05-17T10:05:56.564Z,15.03
2019-05-17T10:08:27.204Z,15.32
2019-05-17T10:11:06.009Z,15.34
2019-05-17T10:13:29.964Z,15.46
2019-05-17T10:16:00.597Z,15.10
2019-05-17T10:18:31.601Z,15.10
2019-05-17T10:21:02.109Z,15.14
2019-05-17T10:23:32.743Z,15.10
2019-05-17T10:26:10.590Z,15.50
2019-05-17T10:28:56.178Z,15.77
2019-05-17T10:31:30.251Z,15.85
2019-05-17T10:34:16.853Z,15.93
2019-05-17T10:36:50.532Z,15.69
2019-05-17T10:39:20.107Z,15.43
2019-05-17T10:41:53.974Z,15.75
2019-05-17T10:44:24.595Z,15.99
2019-05-17T10:46:55.217Z,16.13
2019-05-17T10:49:25.838Z,16.03
2019-05-17T10:51:56.382Z,15.65
2019-05-17T10:54:29.964Z,15.87
2019-05-17T10:57:00.205Z,15.94
2019-05-17T10:59:30.666Z,16.05
2019-05-17T11:02:01.208Z,16.03
2019-05-17T11:04:31.852Z,16.13
2019-05-17T11:07:02.380Z,16.21
2019-05-17T11:09:32.936Z,16.47
2019-05-17T11:12:03.585Z,16.58
2019-05-17T11:14:38.327Z,16.66
2019-05-17T11:17:06.762Z,16.66
2019-05-17T11:19:37.468Z,16.78
2019-05-17T11:22:08.070Z,16.79
2019-05-17T11:24:38.600Z,16.83
2019-05-17T11:27:09.215Z,16.74
2019-05-17T11:29:39.979Z,16.84
2019-05-17T11:32:10.614Z,16.79
2019-05-17T11:34:41.161Z,16.95
2019-05-17T11:37:11.899Z,16.97
2019-05-17T11:39:42.664Z,16.83
2019-05-17T11:42:13.474Z,16.84
2019-05-17T11:44:44.200Z,16.50
2019-05-17T11:47:14.939Z,16.63
2019-05-17T11:49:45.624Z,16.44
2019-05-17T11:52:16.460Z,16.46
2019-05-17T11:54:46.849Z,16.62
2019-05-17T11:57:17.492Z,17.12
2019-05-17T11:59:49.901Z,17.67
2019-05-17T12:02:21.609Z,18.10
2019-05-17T12:04:53.767Z,18.25
2019-05-17T12:07:24.639Z,17.77
2019-05-17T12:09:55.442Z,17.23
2019-05-17T12:12:26.191Z,16.57
2019-05-17T12:14:56.838Z,16.41
2019-05-17T12:17:27.539Z,16.18
2019-05-17T12:19:58.396Z,16.07
2019-05-17T12:22:29.012Z,15.88
2019-05-17T12:25:00.020Z,15.76
2019-05-17T12:27:30.612Z,15.84
2019-05-17T12:30:01.119Z,15.86
2019-05-17T12:32:31.740Z,15.96
2019-05-17T12:35:02.465Z,15.93
2019-05-17T12:37:33.432Z,16.06
2019-05-17T12:40:04.016Z,17.07
2019-05-17T12:42:34.554Z,17.64
2019-05-17T12:45:05.351Z,17.91
2019-05-17T12:47:35.974Z,17.88
2019-05-17T12:50:06.676Z,17.82
2019-05-17T12:52:37.536Z,17.46
2019-05-17T12:55:08.250Z,17.50
2019-05-17T12:57:38.810Z,17.72
2019-05-17T13:00:11.651Z,17.51
2019-05-17T13:02:42.260Z,17.40
2019-05-17T13:05:13.193Z,17.15
2019-05-17T13:07:43.781Z,16.80
2019-05-17T13:10:18.615Z,16.68
2019-05-17T13:12:49.128Z,16.52
2019-05-17T13:15:20.852Z,16.33
2019-05-17T13:17:51.754Z,16.28
2019-05-17T13:20:26.762Z,16.13
2019-05-17T13:22:57.329Z,16.35
2019-05-17T13:25:27.969Z,16.58
2019-05-17T13:27:58.565Z,16.69
2019-05-17T13:30:29.189Z,16.95
2019-05-17T13:32:59.807Z,18.01
2019-05-17T13:35:30.427Z,18.72
2019-05-17T13:38:01.114Z,18.90
2019-05-17T13:40:39.244Z,18.44
2019-05-17T13:43:04.677Z,18.19
2019-05-17T13:45:36.136Z,17.94
2019-05-17T13:48:06.642Z,17.73
2019-05-17T13:50:38.991Z,17.51
2019-05-17T13:53:09.609Z,18.18
2019-05-17T13:55:40.402Z,17.98
2019-05-17T13:58:10.945Z,17.97
2019-05-17T14:00:41.649Z,18.30
2019-05-17T14:03:12.206Z,19.67
2019-05-17T14:05:42.706Z,20.70
2019-05-17T14:08:13.247Z,20.33
2019-05-17T14:10:44.132Z,19.82
2019-05-17T14:13:14.734Z,20.53
2019-05-17T14:15:46.063Z,19.74
2019-05-17T14:18:16.706Z,18.83
2019-05-17T14:20:47.217Z,18.50
2019-05-17T14:23:17.791Z,18.11
2019-05-17T14:25:48.474Z,17.62
2019-05-17T14:28:18.999Z,17.31
2019-05-17T14:30:49.496Z,17.20
2019-05-17T14:33:20.017Z,17.16
2019-05-17T14:35:50.580Z,17.00
2019-05-17T14:38:21.160Z,16.97
2019-05-17T14:41:06.686Z,17.33
2019-05-17T14:43:26.174Z,18.32
2019-05-17T14:45:56.692Z,19.24
2019-05-17T14:48:27.234Z,19.51
2019-05-17T14:50:57.743Z,19.44
2019-05-17T14:53:28.258Z,19.40
2019-05-17T14:55:58.784Z,18.88
2019-05-17T14:58:29.426Z,18.76
2019-05-17T15:00:59.961Z,18.79
2019-05-17T15:03:30.439Z,20.57
2019-05-17T15:06:00.989Z,23.04
2019-05-17T15:08:32.758Z,24.88
2019-05-17T15:11:02.240Z,25.82
2019-05-17T15:13:32.764Z,26.77
2019-05-17T15:16:03.459Z,26.12
2019-05-17T15:18:33.925Z,26.46
2019-05-17T15:21:04.773Z,24.87
2019-05-17T15:23:35.281Z,25.01
2019-05-17T15:26:05.783Z,24.23
2019-05-17T15:28:36.335Z,22.87
2019-05-17T15:31:06.855Z,20.97
2019-05-17T15:33:37.348Z,19.97
2019-05-17T15:36:07.969Z,19.07
2019-05-17T15:38:38.543Z,18.80
2019-05-17T15:41:09.126Z,18.50
2019-05-17T15:43:39.702Z,19.10
2019-05-17T15:46:10.255Z,18.92
2019-05-17T15:48:40.828Z,19.06
2019-05-17T15:51:11.610Z,19.86
2019-05-17T15:53:42.126Z,19.70
2019-05-17T15:56:12.561Z,19.20
2019-05-17T15:58:43.250Z,18.79
2019-05-17T16:01:15.888Z,18.74
2019-05-17T16:03:46.625Z,19.15
2019-05-17T16:06:17.241Z,21.20
2019-05-17T16:08:47.875Z,21.78
2019-05-17T16:11:18.812Z,22.31
2019-05-17T16:13:50.735Z,22.23
2019-05-17T16:16:21.318Z,24.30
2019-05-17T16:18:51.972Z,24.69
2019-05-17T16:21:22.587Z,25.43
2019-05-17T16:23:53.132Z,23.60
2019-05-17T16:26:23.681Z,23.16
2019-05-17T16:28:54.379Z,23.52
2019-05-17T16:31:25.687Z,22.58
2019-05-17T16:33:56.256Z,21.91
2019-05-17T16:36:26.923Z,21.87
2019-05-17T16:38:57.484Z,21.17
2019-05-17T16:41:29.092Z,21.26
2019-05-17T16:43:59.675Z,20.33
2019-05-17T16:46:30.306Z,20.90
2019-05-17T16:49:00.761Z,21.99
2019-05-17T16:51:31.323Z,22.32
2019-05-17T16:54:01.840Z,22.38
2019-05-17T16:56:32.607Z,21.82
2019-05-17T16:59:03.255Z,22.57
2019-05-17T17:01:33.865Z,22.08
2019-05-17T17:04:04.457Z,21.05
2019-05-17T17:06:34.990Z,19.79
2019-05-17T17:09:06.888Z,18.76
2019-05-17T17:11:37.415Z,18.01
2019-05-17T17:14:07.968Z,17.31
2019-05-17T17:16:38.422Z,16.84
2019-05-17T17:19:09.060Z,17.00
2019-05-17T17:21:39.647Z,16.87
2019-05-17T17:24:10.221Z,16.64
2019-05-17T17:26:40.797Z,16.42
2019-05-17T17:29:11.341Z,16.29
2019-05-17T17:31:41.909Z,16.20
2019-05-17T17:34:12.399Z,16.42
2019-05-17T17:36:42.857Z,16.64
2019-05-17T17:39:13.424Z,16.48
2019-05-17T17:41:43.903Z,16.24
2019-05-17T17:44:14.422Z,16.16
2019-05-17T17:46:44.987Z,16.30
2019-05-17T17:49:15.505Z,16.15
2019-05-17T17:51:46.074Z,16.09
2019-05-17T17:54:16.611Z,16.13
2019-05-17T17:56:47.139Z,16.09
2019-05-17T17:59:17.633Z,16.12
2019-05-17T18:01:48.289Z,15.88
2019-05-17T18:04:18.817Z,15.82
2019-05-17T18:06:49.325Z,15.83
2019-05-17T18:09:19.921Z,15.60
2019-05-17T18:11:50.462Z,15.40
2019-05-17T18:14:21.037Z,15.38
2019-05-17T18:16:51.582Z,15.51
2019-05-17T18:19:22.124Z,15.18
2019-05-17T18:21:52.723Z,15.20
2019-05-17T18:24:23.239Z,14.94
2019-05-17T18:26:53.822Z,14.97
2019-05-17T18:29:24.446Z,14.81
2019-05-17T18:31:55.013Z,14.80
2019-05-17T18:34:25.594Z,14.56
2019-05-17T18:36:56.215Z,14.51
2019-05-17T18:39:26.743Z,14.52
2019-05-17T18:41:57.347Z,14.58
2019-05-17T18:44:28.294Z,14.47
2019-05-17T18:46:58.784Z,14.42
2019-05-17T18:49:29.258Z,14.29
2019-05-17T18:51:59.974Z,14.34
2019-05-17T18:54:30.589Z,14.22
2019-05-17T18:57:01.279Z,14.12
2019-05-17T18:59:31.816Z,14.08
2019-05-17T19:02:02.532Z,13.92
2019-05-17T19:04:33.256Z,14.03
2019-05-17T19:07:03.915Z,13.85
2019-05-17T19:09:34.596Z,13.72
2019-05-17T19:12:05.433Z,13.65
2019-05-17T19:14:42.959Z,13.71
2019-05-17T19:17:09.182Z,13.56
2019-05-17T19:19:39.827Z,13.39
2019-05-17T19:22:10.489Z,13.51
2019-05-17T19:24:41.049Z,13.41
2019-05-17T19:27:11.650Z,13.21
2019-05-17T19:29:43.395Z,13.19
2019-05-17T19:32:14.224Z,13.06
2019-05-17T19:34:44.881Z,13.11
2019-05-17T19:37:16.066Z,12.98
2019-05-17T19:39:46.871Z,12.96
2019-05-17T19:42:17.844Z,13.05
2019-05-17T19:44:58.728Z,12.93
2019-05-17T19:47:20.978Z,12.80
2019-05-17T19:49:51.701Z,12.71
2019-05-17T19:52:22.553Z,12.61
2019-05-17T19:54:53.270Z,12.52
2019-05-17T19:57:24.053Z,12.58
2019-05-17T19:59:55.105Z,12.55
2019-05-17T20:02:25.875Z,12.50
2019-05-17T20:04:56.454Z,12.43
2019-05-17T20:07:39.759Z,12.29
2019-05-17T20:10:11.664Z,12.39
2019-05-17T20:12:42.268Z,12.33
2019-05-17T20:15:17.825Z,12.36
2019-05-17T20:17:45.983Z,12.43
2019-05-17T20:20:17.261Z,12.24
2019-05-17T20:22:47.863Z,12.20
2019-05-17T20:25:19.917Z,12.14
2019-05-17T20:27:50.444Z,12.18
2019-05-17T20:30:21.541Z,12.16
2019-05-17T20:32:52.104Z,12.19
2019-05-17T20:35:22.649Z,12.24
2019-05-17T20:37:53.301Z,12.13
2019-05-17T20:40:23.982Z,12.09
2019-05-17T20:42:54.533Z,12.14
2019-05-17T20:45:33.177Z,12.18
2019-05-17T20:47:57.791Z,12.08
2019-05-17T20:50:28.393Z,12.13
2019-05-17T20:52:59.028Z,12.06
2019-05-17T20:55:29.617Z,11.98
2019-05-17T20:58:00.287Z,11.94
2019-05-17T21:00:30.980Z,11.90
2019-05-17T21:03:01.609Z,11.98
2019-05-17T21:05:32.191Z,12.15
2019-05-17T21:08:02.941Z,11.95
2019-05-17T21:10:33.438Z,11.99
2019-05-17T21:13:04.017Z,12.01
2019-05-17T21:15:47.053Z,12.01
2019-05-17T21:18:06.888Z,12.03
2019-05-17T21:20:37.855Z,12.02
2019-05-17T21:23:08.435Z,11.97
2019-05-17T21:25:38.957Z,12.07
2019-05-17T21:28:09.482Z,11.99
2019-05-17T21:30:40.064Z,11.93
2019-05-17T21:33:10.572Z,11.86
2019-05-17T21:35:41.131Z,11.80
2019-05-17T21:38:11.651Z,11.95
2019-05-17T21:40:42.173Z,11.88
2019-05-17T21:43:12.772Z,11.84
2019-05-17T21:45:43.268Z,11.76
2019-05-17T21:48:13.852Z,11.98
2019-05-17T21:50:44.412Z,11.92
2019-05-17T21:53:14.933Z,12.01
2019-05-17T21:55:45.461Z,11.94
2019-05-17T21:58:20.223Z,11.89
2019-05-17T22:01:19.256Z,11.95
2019-05-17T22:03:49.942Z,11.89
2019-05-17T22:06:20.672Z,11.86
2019-05-17T22:08:51.235Z,11.93
2019-05-17T22:11:21.779Z,11.96
2019-05-17T22:13:52.483Z,11.87
2019-05-17T22:16:22.965Z,11.89
2019-05-17T22:18:53.559Z,11.96
2019-05-17T22:21:24.066Z,11.87
2019-05-17T22:23:55.306Z,11.91
2019-05-17T22:26:25.853Z,11.86
2019-05-17T22:28:56.559Z,11.83
2019-05-17T22:31:27.058Z,11.88
2019-05-17T22:33:57.682Z,11.92
2019-05-17T22:36:28.462Z,11.91
2019-05-17T22:38:59.037Z,11.79
2019-05-17T22:41:29.640Z,11.86
2019-05-17T22:44:00.131Z,11.76
2019-05-17T22:46:35.948Z,11.75
2019-05-17T22:49:02.964Z,11.65
2019-05-17T22:51:33.619Z,11.70
2019-05-17T22:54:04.224Z,11.71
2019-05-17T22:56:34.799Z,11.68
2019-05-17T22:59:05.420Z,11.60
2019-05-17T23:01:35.907Z,11.54
2019-05-17T23:04:06.886Z,11.53
2019-05-17T23:06:37.435Z,11.44
2019-05-17T23:09:08.658Z,11.50
2019-05-17T23:11:39.349Z,11.50
2019-05-17T23:14:09.917Z,11.56
2019-05-17T23:16:51.217Z,11.47
2019-05-17T23:19:12.698Z,11.48
2019-05-17T23:21:43.282Z,11.44
2019-05-17T23:24:13.801Z,11.50
2019-05-17T23:26:44.260Z,11.44
2019-05-17T23:29:14.745Z,11.43
2019-05-17T23:31:45.263Z,11.39
2019-05-17T23:34:15.785Z,11.55
2019-05-17T23:36:46.334Z,11.46
2019-05-17T23:39:16.874Z,11.59
2019-05-17T23:41:47.416Z,11.54
2019-05-17T23:44:17.930Z,11.48
2019-05-17T23:46:48.445Z,11.52
2019-05-17T23:49:19.025Z,11.57
2019-05-17T23:51:49.465Z,11.46
2019-05-17T23:54:19.998Z,11.46
2019-05-17T23:56:50.584Z,11.64
2019-05-17T23:59:21.217Z,11.56
